Tiempo atmosférico en la estación meteorológica de Cabacés, Tarragona (360 m.)



Fecha
DESCASC
Temp. máxima en grados centígrados (hora)
DESCASC
Temp. mínima en grados centígrados (hora)
DESCASC
Temp. media en grados centígrados
DESCASC
Racha de viento máxima en m/sg (hora)
DESCASC
Velocidad máxima media en intervalos de 10 minutos(hora)
DESCASC
Precipitaciones diarias en mm
DESCASC
Precipitaciones de 00:00 a 06:00 en mm
DESCASC
Precipitaciones de 06:00 a 12:00 en mm
DESCASC
Precipitaciones de 12:00 a 18:00 en mm
DESCASC
Precipitaciones de 18:00 a 24:00 en mm
DESCASC
20-09-2018 33.5 (15:50) 16.9 (08:00) 25.2 7.22 (18:20) 2.78 (16:30) 0 0 0 0 0
19-09-2018 31.5 (16:20) 16.3 (08:00) 23.9 7.5 (18:50) 2.78 (18:40) 0 0 0 0 0
18-09-2018 28.4 (14:30) 19.8 (23:59) 24.1 8.33 (15:10) 3.06 (16:30) 0 0 0 0 0
17-09-2018 28.6 (14:40) 18 (08:00) 23.3 9.44 (18:40) 3.89 (19:10) 0 0 0 0 0
16-09-2018 29.8 (16:20) 17.1 (00:00) 23.4 8.06 (19:50) 3.06 (18:40) 0 0 0 0 0
15-09-2018 25.4 (13:50) 19.3 (00:00) 22.3 6.11 (01:30) 3.06 (02:10) 1 0 0 1 0
14-09-2018 30.9 (18:50) 16.1 (00:00) 23.5 6.11 (20:10) 2.5 (23:50) 0 0 0 0 0
13-09-2018 30.5 (18:20) 16.8 (00:00) 23.6 6.39 (15:50) 2.5 (14:30) 0 0 0 0 0
12-09-2018 29.3 (15:50) 19.1 (00:00) 24.2 6.39 (14:50) 2.78 (13:30) 0.2 0 0 0 0.2
11-09-2018 30.3 (15:30) 17.2 (00:00) 23.8 8.06 (21:40) 3.06 (21:30) 0 0 0 0 0
10-09-2018 25.8 (13:50) 17.6 (00:00) 21.7 3.89 (14:40) 1.94 (14:40) 0.4 0 0 0.4 0
09-09-2018 30.3 (14:50) 19.3 (00:00) 24.8 10 (17:00) 4.17 (17:00) 0 0 0 0 0
08-09-2018 27.5 (13:50) 16.5 (00:00) 22 8.89 (16:00) 3.33 (16:20) 0 0 0 0 0
07-09-2018 29.2 (16:30) 16.2 (00:00) 22.7 6.94 (20:20) 3.06 (18:40) 0 0 0 0 0
06-09-2018 28.7 (17:30) 18.4 (00:00) 23.6 5.83 (14:40) 2.78 (01:10) 0 0 0 0 0
05-09-2018 28.8 (13:50) 19.2 (00:00) 24 8.33 (20:20) 3.33 (20:20) 1.4 0 1.2 0.2 0
04-09-2018 30.7 (15:10) 19.4 (00:00) 25.1 8.89 (20:00) 3.33 (20:00) 0 0 0 0 0
03-09-2018 30.9 (14:40) 22.7 (00:00) 26.8 9.72 (16:00) 4.17 (15:50) 1 0 0 0 1
02-09-2018 31.7 (16:10) 20.8 (00:00) 26.3 7.5 (02:00) 3.33 (20:40) 0 0 0 0 0
01-09-2018 31.7 (17:10) 16.9 (00:00) 24.3 7.22 (20:50) 3.61 (19:30) 0 0 0 0 0
31-08-2018 31.3 (17:10) 17.3 (00:00) 24.3 7.78 (18:00) 2.78 (19:30) 2.2 0 2.2 0 0
30-08-2018 31.8 (16:40) 18.5 (00:00) 25.1 6.94 (00:40) 2.78 (03:40) 0 0 0 0 0
29-08-2018 32.5 (17:00) 18.8 (00:00) 25.6 7.78 (21:30) 3.33 (21:40) 0.2 0.2 0 0 0
28-08-2018 32.3 (14:40) 21.4 (00:00) 26.8 11.11 (16:10) 4.17 (00:50) 8.6 0 0 0.8 7.8
27-08-2018 33.3 (15:20) 17 (00:00) 25.1 8.06 (19:30) 3.61 (21:10) 0 0 0 0 0
26-08-2018 31 (17:50) 15.4 (00:00) 23.2 5.83 (01:00) 2.78 (16:30) 0 0 0 0 0
25-08-2018 29.7 (19:10) 16.2 (00:00) 23 9.44 (14:40) 3.06 (16:40) 0 0 0 0 0
24-08-2018 31.3 (17:10) 18.5 (00:00) 24.9 11.67 (17:30) 3.61 (17:00) 0 0 0 0 0

Gráficas

Temp. máximas Temp. mínimas Temp. medias Precipitaciones Rachas de viento máximas Velocidades máximas media en intervalos de 10 minutos

Datos horarios

Fecha y hora oficial Temperatura (ºC) Velocidad del viento (km/h) Dirección del viento Racha (km/h) Dirección de racha Precipitación (mm) Presión (hPa) Tendencia (hPa) Humedad (%)
2018-09-22 23:00:00 23.3 2 Nordeste 3 Norte 0 -- -- 69
2018-09-22 22:00:00 24.2 2 Sudoeste 6 Sudeste 0 -- -- 48
2018-09-22 21:00:00 26 0 Calma 2 Sur 0 -- -- 45
2018-09-22 20:00:00 29.2 0 Calma 10 Sudoeste 0 -- -- 38
2018-09-22 19:00:00 32.3 4 Sur 20 Oeste 0 -- -- 33
2018-09-22 18:00:00 32.6 7 Este 21 Oeste 0 -- -- 31
2018-09-22 17:00:00 32.7 6 Oeste 21 Oeste 0 -- -- 34
2018-09-22 16:00:00 31.9 8 Sudoeste 27 Sudoeste 0 -- -- 36
2018-09-22 15:00:00 30.8 7 Oeste 20 Sudoeste 0 -- -- 38
2018-09-22 14:00:00 29.9 6 Oeste 17 Oeste 0 -- -- 39
2018-09-22 13:00:00 27.8 7 Oeste 15 Sudoeste 0 -- -- 45
2018-09-22 12:00:00 25.6 5 Oeste 17 Sur 0 -- -- 51
2018-09-22 11:00:00 23.6 4 Noroeste 12 Oeste 0 -- -- 58
2018-09-22 10:00:00 20.2 5 Oeste 13 Noroeste 0 -- -- 69
2018-09-22 09:00:00 18.9 2 Sudeste 9 Sudoeste 0 -- -- 73
2018-09-22 08:00:00 18.7 3 Sur 8 Nordeste 0 -- -- 72
2018-09-22 07:00:00 19.3 2 Sur 11 Norte 0 -- -- 70
2018-09-22 06:00:00 19.9 3 Oeste 14 Norte 0 -- -- 66
2018-09-22 05:00:00 20.5 4 Norte 10 Norte 0 -- -- 61
2018-09-22 04:00:00 21.2 3 Este 12 Nordeste 0 -- -- 57
2018-09-22 03:00:00 22 6 Nordeste 18 Este 0 -- -- 52
2018-09-22 02:00:00 22.3 3 Sudoeste 9 Sudoeste 0 -- -- 52
2018-09-22 01:00:00 21.7 0 Calma 4 Norte 0 -- -- 64
2018-09-22 00:00:00 22.7 2 Sur 5 Sur 0 -- -- 60
2018-09-21 23:00:00 23.8 2 Nordeste 6 Noroeste 0 -- -- 57
2018-09-21 22:00:00 24.9 0 Calma 4 Sudeste 0 -- -- 54
2018-09-21 21:00:00 27.2 0 Calma 7 Este 0 -- -- 45
2018-09-21 20:00:00 30.3 3 Este 12 Este 0 -- -- 38
2018-09-21 19:00:00 32.9 5 Nordeste 17 Este 0 -- -- 33
2018-09-21 18:00:00 33.2 7 Sudeste 24 Sur 0 -- -- 32
2018-09-21 17:00:00 34.1 6 Oeste 24 Noroeste 0 -- -- 33
2018-09-21 16:00:00 34 7 Oeste 22 Sudoeste 0 -- -- 36
2018-09-21 15:00:00 33.4 8 Oeste 17 Oeste 0 -- -- 34
2018-09-21 14:00:00 32.2 5 Noroeste 14 Sur 0 -- -- 39
2018-09-21 13:00:00 30.4 6 Oeste 13 Noroeste 0 -- -- 43
2018-09-21 12:00:00 29.1 5 Sur 11 Sur 0 -- -- 45
2018-09-21 11:00:00 26.3 4 Sudeste 7 Sur 0 -- -- 50
2018-09-21 10:00:00 20 2 Oeste 4 Sur 0 -- -- 69
2018-09-21 09:00:00 17.7 0 Calma 5 Sudeste 0 -- -- 73
2018-09-21 08:00:00 17.7 0 Calma 5 Sudeste 0 -- -- 71
2018-09-21 07:00:00 17.7 0 Calma 4 Sudeste 0 -- -- 70
2018-09-21 06:00:00 18.2 0 Calma 4 Sur 0 -- -- 65
2018-09-21 05:00:00 18.9 0 Calma 3 Este 0 -- -- 63
2018-09-21 04:00:00 19.8 0 Calma 6 Este 0 -- -- 59
2018-09-21 03:00:00 21.4 0 Calma 8 Sudoeste 0 -- -- 53
2018-09-21 02:00:00 24.2 3 Sudoeste 17 Sudeste 0 -- -- 48
2018-09-21 01:00:00 23.9 6 Sudeste 17 Sudeste 0 -- -- 48
2018-09-21 00:00:00 24.8 6 Sudeste 16 Este 0 -- -- 45
2018-09-20 23:00:00 24.7 7 Sudeste 18 Este 0 -- -- 44
2018-09-20 22:00:00 24.6 7 Sudeste 19 Sudeste 0 -- -- 47
2018-09-20 21:00:00 25.1 8 Sudeste 19 Sur 0 -- -- 53
2018-09-20 20:00:00 26.6 6 Sudeste 17 Sudoeste 0 -- -- 47
2018-09-20 19:00:00 29.1 7 Sur 26 Sudeste 0 -- -- 47
2018-09-20 18:00:00 30.8 6 Oeste 18 Sudeste 0 -- -- 45
2018-09-20 17:00:00 31.2 7 Este 22 Sudeste 0 -- -- 44
2018-09-20 16:00:00 32.7 6 Sudeste 19 Sur 0 -- -- 37
2018-09-20 15:00:00 32.5 6 Sudoeste 17 Noroeste 0 -- -- 39
2018-09-20 14:00:00 31.2 5 Sudoeste 17 Oeste 0 -- -- 40
2018-09-20 13:00:00 30.1 4 Sudoeste 12 Sur 0 -- -- 43
2018-09-20 12:00:00 28.1 5 Oeste 10 Noroeste 0 -- -- 48
2018-09-20 11:00:00 25.1 2 Sur 5 Sur 0 -- -- 59
2018-09-20 10:00:00 19.6 0 Calma 3 Sur 0 -- -- 78
2018-09-20 09:00:00 17.6 0 Calma 5 Sudeste 0 -- -- 81
2018-09-20 08:00:00 16.9 0 Calma 3 Sudeste 0 -- -- 81
2018-09-20 07:00:00 17.2 0 Calma 3 Sudeste 0 -- -- 79
2018-09-20 06:00:00 17.4 0 Calma 4 Sudeste 0 -- -- 79
2018-09-20 05:00:00 18 0 Calma 6 Sudeste 0 -- -- 76
2018-09-20 04:00:00 18.6 0 Calma 6 Sudeste 0 -- -- 75
2018-09-20 03:00:00 19.4 0 Calma 4 Sudeste 0 -- -- 73
2018-09-20 02:00:00 20.9 2 Norte 14 Sudeste 0 -- -- 68
2018-09-20 01:00:00 22.3 4 Sur 17 Sur 0 -- -- 63
2018-09-20 00:00:00 21.9 5 Sur 13 Sudeste 0 -- -- 65
2018-09-19 23:00:00 22.3 5 Sur 12 Sur 0 -- -- 65
2018-09-19 22:00:00 22.8 3 Sudeste 15 Sur 0 -- -- 67
2018-09-19 21:00:00 23.8 4 Sur 19 Sudeste 0 -- -- 65
2018-09-19 20:00:00 25.2 7 Sudeste 19 Sudeste 0 -- -- 57
2018-09-19 19:00:00 27.7 10 Sudeste 27 Sudeste 0 -- -- 49
2018-09-19 18:00:00 29.1 6 Sudoeste 25 Sudoeste 0 -- -- 51
2018-09-19 17:00:00 29.1 8 Oeste 21 Sudoeste 0 -- -- 52
2018-09-19 16:00:00 30.8 8 Noroeste 15 Noroeste 0 -- -- 42
2018-09-19 15:00:00 30.9 7 Sur 18 Sudoeste 0 -- -- 43
2018-09-19 14:00:00 29.3 4 Oeste 15 Noroeste 0 -- -- 47
2018-09-19 13:00:00 28.2 4 Oeste 12 Oeste 0 -- -- 53
2018-09-19 12:00:00 26.3 3 Sur 10 Sudoeste 0 -- -- 58
2018-09-19 11:00:00 23.8 3 Sudoeste 8 Sur 0 -- -- 68
2018-09-19 10:00:00 18.7 3 Sudeste 5 Sudeste 0 -- -- 87
2018-09-19 09:00:00 16.7 2 Sudeste 5 Sudeste 0 -- -- 92
2018-09-19 08:00:00 16.3 0 Calma 3 Sur 0 -- -- 90
2018-09-19 07:00:00 16.5 3 Sudeste 4 Sudeste 0 -- -- 89
2018-09-19 06:00:00 17.1 0 Calma 7 Este 0 -- -- 89
2018-09-19 05:00:00 17.4 0 Calma 5 Sudeste 0 -- -- 89
2018-09-19 04:00:00 17.8 0 Calma 6 Este 0 -- -- 88
2018-09-19 03:00:00 18.3 0 Calma 6 Sudeste 0 -- -- 87
2018-09-19 02:00:00 19 0 Calma 7 Sudoeste 0 -- -- 86
2018-09-19 01:00:00 19.2 3 Sudeste 9 Sudeste 0 -- -- 86
2018-09-19 00:00:00 19.8 3 Sudeste 6 Sudeste 0 -- -- 82
2018-09-18 23:00:00 20.8 4 Este 10 Sudeste 0 -- -- 79
2018-09-18 22:00:00 21.3 4 Sur 16 Sur 0 -- -- 80
2018-09-18 21:00:00 21.6 5 Sur 17 Sudeste 0 -- -- 78
2018-09-18 20:00:00 22.3 4 Oeste 21 Sudeste 0 -- -- 73
2018-09-18 19:00:00 22.9 9 Sudeste 27 Sudeste 0 -- -- 70
2018-09-18 18:00:00 24.5 10 Sur 26 Sudeste 0 -- -- 65
2018-09-18 17:00:00 26.6 10 Sudeste 29 Sudeste 0 -- -- 62
2018-09-18 16:00:00 26.9 10 Sudeste 30 Sur 0 -- -- 61
2018-09-18 15:00:00 27.6 7 Sudoeste 19 Oeste 0 -- -- 58
2018-09-18 14:00:00 27.4 5 Sudoeste 14 Sudeste 0 -- -- 56
2018-09-18 13:00:00 25.8 4 Sudoeste 11 Noroeste 0 -- -- 61
2018-09-18 12:00:00 24.6 3 Nordeste 9 Sur 0 -- -- 69
2018-09-18 11:00:00 22 3 Sudoeste 14 Sur 0 -- -- 78
2018-09-18 10:00:00 20.9 6 Sur 16 Sudeste 0 -- -- 81
2018-09-18 09:00:00 20.4 5 Sur 19 Sudeste 0 -- -- 81
2018-09-18 08:00:00 20.7 2 Noroeste 21 Oeste 0 -- -- 80
2018-09-18 07:00:00 21.6 0 Calma 19 Sudeste 0 -- -- 76
2018-09-18 06:00:00 21.3 3 Este 16 Este 0 -- -- 75
2018-09-18 05:00:00 21.1 5 Sur 23 Este 0 -- -- 75
2018-09-18 04:00:00 21 3 Este 20 Sudeste 0 -- -- 75
2018-09-18 03:00:00 21.3 6 Este 19 Sudeste 0 -- -- 74
2018-09-18 02:00:00 21.4 3 Oeste 14 Sudeste 0 -- -- 73
2018-09-18 01:00:00 21.3 4 Sur 14 Sur 0 -- -- 74
2018-09-18 00:00:00 21 5 Noroeste 24 Este 0 -- -- 78
2018-09-17 23:00:00 21.3 7 Sur 21 Sudoeste 0 -- -- 78
2018-09-17 22:00:00 21.5 4 Sur 31 Noroeste 0 -- -- 79
2018-09-17 21:00:00 21.9 8 Oeste 29 Este 0 -- -- 76
2018-09-17 20:00:00 22.6 8 Sur 32 Este 0 -- -- 76
2018-09-17 19:00:00 23.4 10 Sudeste 34 Sudeste 0 -- -- 72
2018-09-17 18:00:00 24.9 8 Sudeste 31 Sudeste 0 -- -- 63
2018-09-17 17:00:00 27.6 8 Sudeste 28 Este 0 -- -- 55
2018-09-17 16:00:00 26.8 10 Sudeste 25 Sur 0 -- -- 57
2018-09-17 15:00:00 27.7 6 Sudeste 21 Sudeste 0 -- -- 56
2018-09-17 14:00:00 27.6 9 Este 22 Sudeste 0 -- -- 56
2018-09-17 13:00:00 26.7 10 Noroeste 23 Sudoeste 0 -- -- 60
2018-09-17 12:00:00 26.5 6 Oeste 19 Sudoeste 0 -- -- 63
2018-09-17 11:00:00 25.1 5 Sur 13 Sudeste 0 -- -- 67
2018-09-17 10:00:00 20.3 3 Noroeste 6 Noroeste 0 -- -- 87
2018-09-17 09:00:00 18.2 0 Calma 6 Sudeste 0 -- -- 92
2018-09-17 08:00:00 18 0 Calma 5 Sudoeste 0 -- -- 91
2018-09-17 07:00:00 18.4 0 Calma 5 Este 0 -- -- 89
2018-09-17 06:00:00 19.1 0 Calma 7 Este 0 -- -- 87
2018-09-17 05:00:00 19.7 3 Nordeste 9 Nordeste 0 -- -- 87
2018-09-17 04:00:00 20.3 3 Noroeste 14 Sur 0 -- -- 83
2018-09-17 03:00:00 21.1 4 Noroeste 16 Sudoeste 0 -- -- 81
2018-09-17 02:00:00 20.9 5 Norte 18 Noroeste 0 -- -- 81
2018-09-17 01:00:00 20.9 7 Oeste 18 Sudeste 0 -- -- 83
2018-09-17 00:00:00 21 4 Noroeste 18 Sur 0 -- -- 82
2018-09-16 23:00:00 21.6 5 Sur 15 Sudoeste 0 -- -- 77
2018-09-16 22:00:00 22.9 6 Sur 23 Sudeste 0 -- -- 66
2018-09-16 21:00:00 22.6 8 Sudeste 24 Sudeste 0 -- -- 72
2018-09-16 20:00:00 23.8 6 Sur 29 Sur 0 -- -- 70
2018-09-16 19:00:00 26.5 10 Sudeste 26 Este 0 -- -- 59
2018-09-16 18:00:00 27 5 Noroeste 18 Sudoeste 0 -- -- 60
2018-09-16 17:00:00 28.5 6 Sudoeste 21 Sur 0 -- -- 56
2018-09-16 16:00:00 29.5 7 Sur 21 Sudoeste 0 -- -- 53
2018-09-16 15:00:00 27.9 7 Sur 16 Sudoeste 0 -- -- 60
2018-09-16 14:00:00 25.9 6 Sur 14 Sur 0 -- -- 65
2018-09-16 13:00:00 26.8 4 Oeste 15 Sudoeste 0 -- -- 60
2018-09-16 12:00:00 25.4 4 Sudoeste 13 Sudoeste 0 -- -- 62
2018-09-16 11:00:00 22.7 4 Oeste 7 Oeste 0 -- -- 76
2018-09-16 10:00:00 19.1 0 Calma 5 Sur 0 -- -- 92
2018-09-16 09:00:00 17.4 0 Calma 5 Este 0 -- -- 95
2018-09-16 08:00:00 17.1 0 Calma 4 Este 0 -- -- 94
2018-09-16 07:00:00 17.4 2 Sudoeste 5 Sudeste 0 -- -- 93
2018-09-16 06:00:00 17.7 0 Calma 4 Sudeste 0 -- -- 92
2018-09-16 05:00:00 17.6 0 Calma 4 Sudoeste 0 -- -- 92
2018-09-16 04:00:00 17.9 2 Sudeste 5 Este 0 -- -- 91
2018-09-16 03:00:00 18.3 0 Calma 4 Sudeste 0 -- -- 90
2018-09-16 02:00:00 19.3 4 Sudeste 8 Sudeste 0 -- -- 89
2018-09-16 01:00:00 19.9 5 Sudeste 11 Sudeste 0 -- -- 87
2018-09-16 00:00:00 19.9 0 Calma 11 Sudeste 0 -- -- 87
2018-09-15 23:00:00 20.3 3 Noroeste 13 Este 0 -- -- 85
2018-09-15 22:00:00 20 4 Norte 9 Este 0 -- -- 86
2018-09-15 21:00:00 19.6 3 Noroeste 9 Noroeste 0 -- -- 89
2018-09-15 20:00:00 19.7 4 Noroeste 11 Este 0 -- -- 88
2018-09-15 19:00:00 19.9 4 Oeste 17 Noroeste 0 -- -- 82
2018-09-15 18:00:00 19.7 4 Sudeste 16 Este 0.4 -- -- 84
2018-09-15 17:00:00 21.5 9 Sudeste 21 Este 0.6 -- -- 80
2018-09-15 16:00:00 24.2 6 Oeste 14 Oeste 0 -- -- 60
2018-09-15 15:00:00 25.2 4 Sur 10 Oeste 0 -- -- 54
2018-09-15 14:00:00 25.3 3 Oeste 12 Noroeste 0 -- -- 55
2018-09-15 13:00:00 24.9 5 Noroeste 12 Noroeste 0 -- -- 56
2018-09-15 12:00:00 23.5 4 Sur 11 Oeste 0 -- -- 58
2018-09-15 11:00:00 21.5 3 Sudeste 7 Noroeste 0 -- -- 64
2018-09-15 10:00:00 20.1 4 Oeste 13 Noroeste 0 -- -- 69
2018-09-15 09:00:00 19.4 4 Noroeste 13 Norte 0 -- -- 72
2018-09-15 08:00:00 19.5 3 Noroeste 10 Noroeste 0 -- -- 73
2018-09-15 07:00:00 20.4 0 Calma 8 Sur 0 -- -- 79
2018-09-15 06:00:00 21.4 2 Sudoeste 14 Sudeste 0 -- -- 83
2018-09-15 05:00:00 22 5 Sudeste 13 Sudeste 0 -- -- 81
2018-09-15 04:00:00 22 4 Sudoeste 14 Sudeste 0 -- -- 82
2018-09-15 03:00:00 21.9 5 Sudeste 19 Este 0 -- -- 82
2018-09-15 02:00:00 22.1 10 Sudeste 22 Sudeste 0 -- -- 79
2018-09-15 01:00:00 22.6 8 Sudeste 19 Sudeste 0 -- -- 75
2018-09-15 00:00:00 22.6 9 Sudeste 19 Sudeste 0 -- -- 72
2018-09-14 23:00:00 22.1 3 Noroeste 14 Sur 0 -- -- 76
2018-09-14 22:00:00 23.1 8 Sudeste 17 Sudeste 0 -- -- 73
2018-09-14 21:00:00 24 6 Sudeste 22 Sudeste 0 -- -- 72
2018-09-14 20:00:00 25.8 7 Sudeste 18 Sudeste 0 -- -- 63
2018-09-14 19:00:00 30.7 3 Oeste 10 Noroeste 0 -- -- 33
2018-09-14 18:00:00 30.4 4 Norte 12 Oeste 0 -- -- 33
2018-09-14 17:00:00 29.8 5 Sur 14 Noroeste 0 -- -- 36
2018-09-14 16:00:00 29 6 Sudoeste 17 Sudoeste 0 -- -- 36
2018-09-14 15:00:00 28.1 6 Norte 14 Oeste 0 -- -- 41
2018-09-14 14:00:00 25.5 4 Noroeste 15 Noroeste 0 -- -- 46
2018-09-14 13:00:00 24.6 5 Oeste 14 Sur 0 -- -- 50
2018-09-14 12:00:00 22.9 4 Sudoeste 11 Oeste 0 -- -- 56
2018-09-14 11:00:00 20.9 4 Sudoeste 13 Oeste 0 -- -- 63
2018-09-14 10:00:00 18.2 4 Sur 17 Nordeste 0 -- -- 73
2018-09-14 09:00:00 16.6 4 Sudeste 9 Este 0 -- -- 77
2018-09-14 08:00:00 16.1 2 Este 11 Nordeste 0 -- -- 78
2018-09-14 07:00:00 16.6 4 Norte 11 Este 0 -- -- 76
2018-09-14 06:00:00 17.4 3 Norte 11 Norte 0 -- -- 73
2018-09-14 05:00:00 17.6 2 Nordeste 10 Norte 0 -- -- 73
2018-09-14 04:00:00 18 3 Nordeste 12 Este 0 -- -- 73
2018-09-14 03:00:00 18.4 2 Nordeste 6 Oeste 0 -- -- 73
2018-09-14 02:00:00 18.6 0 Calma 6 Oeste 0 -- -- 78
2018-09-14 01:00:00 19.6 0 Calma 4 Sudeste 0 -- -- 78
2018-09-14 00:00:00 20.7 0 Calma 0 Calma 0 -- -- 77
2018-09-13 23:00:00 21.8 2 Sudeste 4 Sudeste 0 -- -- 74
2018-09-13 22:00:00 23.1 2 Sudeste 7 Este 0 -- -- 69
2018-09-13 21:00:00 24.8 0 Calma 12 Sur 0 -- -- 61
2018-09-13 20:00:00 27.6 3 Oeste 13 Oeste 0 -- -- 48
2018-09-13 19:00:00 30 5 Noroeste 15 Sudoeste 0 -- -- 38
2018-09-13 18:00:00 30.4 6 Noroeste 18 Oeste 0 -- -- 38
2018-09-13 17:00:00 30.1 8 Oeste 18 Sudoeste 0 -- -- 40
2018-09-13 16:00:00 29.7 6 Oeste 23 Sur 0 -- -- 42
2018-09-13 15:00:00 28.6 7 Sudoeste 20 Oeste 0 -- -- 45
2018-09-13 14:00:00 27.5 8 Noroeste 20 Sudoeste 0 -- -- 49
2018-09-13 13:00:00 25.8 5 Oeste 21 Sur 0 -- -- 55
2018-09-13 12:00:00 24.1 6 Sudoeste 16 Noroeste 0 -- -- 63
2018-09-13 11:00:00 21.9 5 Sudoeste 15 Oeste 0 -- -- 70
2018-09-13 10:00:00 19.1 3 Sudoeste 10 Sudoeste 0 -- -- 84
2018-09-13 09:00:00 17.8 3 Sudeste 9 Nordeste 0 -- -- 89
2018-09-13 08:00:00 17.2 2 Nordeste 9 Nordeste 0 -- -- 90
2018-09-13 07:00:00 16.9 2 Sudeste 4 Este 0 -- -- 89
2018-09-13 06:00:00 17.2 3 Sudeste 8 Oeste 0 -- -- 87
2018-09-13 05:00:00 17.1 0 Calma 5 Sudeste 0 -- -- 90
2018-09-13 04:00:00 17.7 0 Calma 8 Nordeste 0 -- -- 87
2018-09-13 03:00:00 17.9 0 Calma 9 Este 0 -- -- 87
2018-09-13 02:00:00 18 0 Calma 4 Sudeste 0 -- -- 86
2018-09-13 01:00:00 18.4 0 Calma 7 Sur 0 -- -- 88
2018-09-13 00:00:00 19.1 0 Calma 5 Sudeste 0 -- -- 86
2018-09-12 23:00:00 19.7 2 Sudeste 5 Sudeste 0 -- -- 83
2018-09-12 22:00:00 20.8 3 Sudeste 5 Nordeste 0 -- -- 78
2018-09-12 21:00:00 22.1 2 Nordeste 13 Noroeste 0 -- -- 71
2018-09-12 20:00:00 23.4 6 Norte 17 Norte 0.2 -- -- 74
2018-09-12 19:00:00 24.6 8 Sudeste 19 Norte 0 -- -- 62
2018-09-12 18:00:00 27.5 9 Sur 20 Sur 0 -- -- 61
2018-09-12 17:00:00 28.9 7 Sur 16 Sudeste 0 -- -- 45
2018-09-12 16:00:00 29 4 Sur 13 Sudeste 0 -- -- 49
2018-09-12 15:00:00 28.4 4 Oeste 23 Oeste 0 -- -- 51
2018-09-12 14:00:00 27.8 7 Oeste 20 Oeste 0 -- -- 52
2018-09-12 13:00:00 27.7 8 Oeste 18 Noroeste 0 -- -- 52
2018-09-12 12:00:00 27.2 5 Sudoeste 15 Sudoeste 0 -- -- 52
2018-09-12 11:00:00 25.2 3 Noroeste 11 Oeste 0 -- -- 57
2018-09-12 10:00:00 22 0 Calma 5 Sudeste 0 -- -- 64
2018-09-12 09:00:00 19.9 2 Norte 4 Norte 0 -- -- 73
2018-09-12 08:00:00 19.4 0 Calma 9 Norte 0 -- -- 74
2018-09-12 07:00:00 19.9 0 Calma 8 Sudeste 0 -- -- 66
2018-09-12 06:00:00 20.6 3 Este 11 Sudeste 0 -- -- 66
2018-09-12 05:00:00 19.7 0 Calma 7 Sudeste 0 -- -- 73
2018-09-12 04:00:00 19.5 3 Este 9 Sudeste 0 -- -- 78
2018-09-12 03:00:00 19.3 0 Calma 5 Sudeste 0 -- -- 84
2018-09-12 02:00:00 19.7 0 Calma 5 Sudeste 0 -- -- 82
2018-09-12 01:00:00 20 0 Calma 10 Sur 0 -- -- 81
2018-09-12 00:00:00 20.9 4 Sur 14 Sudeste 0 -- -- 78
2018-09-11 23:00:00 21.8 4 Sudeste 17 Sudeste 0 -- -- 73
2018-09-11 22:00:00 23.3 8 Noroeste 29 Este 0 -- -- 62
2018-09-11 21:00:00 23.1 6 Noroeste 18 Sudeste 0 -- -- 69
2018-09-11 20:00:00 24.4 5 Sur 23 Sudeste 0 -- -- 62
2018-09-11 19:00:00 27 7 Sudeste 22 Sudeste 0 -- -- 50
2018-09-11 18:00:00 29.4 7 Sudeste 27 Noroeste 0 -- -- 43
2018-09-11 17:00:00 29.7 9 Oeste 28 Sudoeste 0 -- -- 42
2018-09-11 16:00:00 30 9 Noroeste 21 Sudoeste 0 -- -- 41
2018-09-11 15:00:00 29.3 7 Nordeste 23 Oeste 0 -- -- 43
2018-09-11 14:00:00 28.3 6 Este 21 Sudeste 0 -- -- 47
2018-09-11 13:00:00 26.3 6 Nordeste 23 Nordeste 0 -- -- 52
2018-09-11 12:00:00 26.4 6 Sudoeste 14 Oeste 0 -- -- 52
2018-09-11 11:00:00 25.5 4 Sudoeste 9 Noroeste 0 -- -- 57
2018-09-11 10:00:00 21.6 0 Calma 4 Sur 0 -- -- 76
2018-09-11 09:00:00 18.2 0 Calma 2 Norte 0 -- -- 91
2018-09-11 08:00:00 17.5 0 Calma 0 Calma 0 -- -- 91
2018-09-11 07:00:00 17.4 0 Calma 2 Sudeste 0 -- -- 91
2018-09-11 06:00:00 17.4 0 Calma 4 Sudeste 0 -- -- 91
2018-09-11 05:00:00 17.4 0 Calma 4 Noroeste 0 -- -- 91
2018-09-11 04:00:00 17.3 0 Calma 4 Sudeste 0 -- -- 90
2018-09-11 03:00:00 18 0 Calma 8 Nordeste 0 -- -- 87
2018-09-11 02:00:00 18.2 0 Calma 4 Sudeste 0 -- -- 88
2018-09-11 01:00:00 19 0 Calma 4 Sudeste 0 -- -- 87
2018-09-11 00:00:00 20.1 0 Calma 3 Sudeste 0 -- -- 85
2018-09-10 23:00:00 20.7 0 Calma 5 Sudeste 0 -- -- 83
2018-09-10 22:00:00 21 0 Calma 5 Sudeste 0 -- -- 82
2018-09-10 21:00:00 22.2 2 Sudeste 8 Sur 0 -- -- 77
2018-09-10 20:00:00 24 4 Sur 12 Sudoeste 0 -- -- 70
2018-09-10 19:00:00 24.7 3 Sudoeste 11 Sur 0 -- -- 66
2018-09-10 18:00:00 23.9 3 Oeste 10 Oeste 0 -- -- 75
2018-09-10 17:00:00 21.7 0 Calma 12 Sudeste 0.2 -- -- 83
2018-09-10 16:00:00 22.2 6 Este 12 Este 0.2 -- -- 76
2018-09-10 15:00:00 23.2 3 Este 14 Sudeste 0 -- -- 76
2018-09-10 14:00:00 25.7 4 Sur 14 Norte 0 -- -- 60
2018-09-10 13:00:00 23.5 4 Sudoeste 13 Oeste 0 -- -- 67
2018-09-10 12:00:00 22.2 3 Este 11 Oeste 0 -- -- 73
2018-09-10 11:00:00 20.8 3 Oeste 10 Sudoeste 0 -- -- 78
2018-09-10 10:00:00 19.9 3 Oeste 9 Noroeste 0 -- -- 84
2018-09-10 09:00:00 18.5 0 Calma 4 Noroeste 0 -- -- 87
2018-09-10 08:00:00 17.6 0 Calma 5 Sudeste 0 -- -- 87
2018-09-10 07:00:00 18 2 Sudeste 6 Este 0 -- -- 86
2018-09-10 06:00:00 17.8 5 Este 8 Sudeste 0 -- -- 87
2018-09-10 05:00:00 17.9 0 Calma 6 Sudeste 0 -- -- 83
2018-09-10 04:00:00 18.5 0 Calma 4 Nordeste 0 -- -- 83
2018-09-10 03:00:00 19.4 0 Calma 6 Sudeste 0 -- -- 81
2018-09-10 02:00:00 19.7 0 Calma 6 Sudeste 0 -- -- 80
2018-09-10 01:00:00 20.3 2 Nordeste 6 Sudeste 0 -- -- 80
2018-09-10 00:00:00 21 2 Sudeste 8 Este 0 -- -- 79
2018-09-09 23:00:00 22 4 Sudeste 13 Sur 0 -- -- 76
2018-09-09 22:00:00 22.2 6 Sur 19 Sudeste 0 -- -- 80
2018-09-09 21:00:00 22.8 7 Sur 21 Sur 0 -- -- 77
2018-09-09 20:00:00 23.5 6 Sur 21 Sur 0 -- -- 72
2018-09-09 19:00:00 23.9 6 Sur 20 Sudeste 0 -- -- 69
2018-09-09 18:00:00 24.2 10 Sudeste 28 Sur 0 -- -- 67
2018-09-09 17:00:00 25.5 15 Sudeste 36 Sudeste 0 -- -- 61
2018-09-09 16:00:00 28.1 5 Oeste 19 Sur 0 -- -- 55
2018-09-09 15:00:00 29.6 8 Sur 19 Sudoeste 0 -- -- 50
2018-09-09 14:00:00 29.2 6 Sudoeste 15 Noroeste 0 -- -- 43
2018-09-09 13:00:00 27.7 5 Oeste 19 Noroeste 0 -- -- 52
2018-09-09 12:00:00 25.8 4 Noroeste 9 Sudoeste 0 -- -- 61
2018-09-09 11:00:00 23.7 3 Sudeste 8 Noroeste 0 -- -- 70
2018-09-09 10:00:00 21.9 3 Noroeste 7 Oeste 0 -- -- 77
2018-09-09 09:00:00 19.4 0 Calma 4 Sur 0 -- -- 83
2018-09-09 08:00:00 19.3 0 Calma 5 Sudoeste 0 -- -- 83
2018-09-09 07:00:00 20.2 4 Sur 13 Sudeste 0 -- -- 77
2018-09-09 06:00:00 20.4 3 Norte 11 Sur 0 -- -- 77
2018-09-09 05:00:00 21.4 3 Sudoeste 18 Nordeste 0 -- -- 72
2018-09-09 04:00:00 21.4 3 Norte 13 Nordeste 0 -- -- 75
2018-09-09 03:00:00 21.4 4 Norte 13 Nordeste 0 -- -- 78
2018-09-09 02:00:00 21.5 5 Oeste 18 Sur 0 -- -- 81
2018-09-09 01:00:00 21.7 8 Sur 23 Sudoeste 0 -- -- 80
2018-09-09 00:00:00 21.5 8 Sudoeste 19 Sudoeste 0 -- -- 80
2018-09-08 23:00:00 21.7 8 Sudoeste 24 Sur 0 -- -- 80
2018-09-08 22:00:00 22 5 Sudoeste 25 Sudoeste 0 -- -- 78
2018-09-08 21:00:00 22.7 8 Sur 22 Sudoeste 0 -- -- 76
2018-09-08 20:00:00 24 7 Sur 21 Sudoeste 0 -- -- 68
2018-09-08 19:00:00 25.6 8 Sudeste 18 Este 0 -- -- 61
2018-09-08 18:00:00 26.6 6 Sur 19 Oeste 0 -- -- 59
2018-09-08 17:00:00 25.6 10 Oeste 29 Oeste 0 -- -- 63
2018-09-08 16:00:00 26.5 9 Este 32 Sudeste 0 -- -- 61
2018-09-08 15:00:00 26.4 8 Sudoeste 21 Oeste 0 -- -- 60
2018-09-08 14:00:00 27.1 9 Sudoeste 24 Norte 0 -- -- 57
2018-09-08 13:00:00 26.4 7 Oeste 30 Noroeste 0 -- -- 58
2018-09-08 12:00:00 24.9 6 Oeste 20 Noroeste 0 -- -- 66
2018-09-08 11:00:00 25.1 4 Sudeste 14 Sur 0 -- -- 63
2018-09-08 10:00:00 22.3 5 Sur 14 Sudoeste 0 -- -- 71
2018-09-08 09:00:00 19.3 4 Este 13 Sudeste 0 -- -- 81
2018-09-08 08:00:00 18.4 7 Sudeste 13 Sudeste 0 -- -- 81
2018-09-08 07:00:00 16.9 0 Calma 3 Sudoeste 0 -- -- 76
2018-09-08 06:00:00 17.1 0 Calma 3 Noroeste 0 -- -- 74
2018-09-08 05:00:00 18.1 0 Calma 3 Oeste 0 -- -- 69
2018-09-08 04:00:00 19.1 2 Noroeste 8 Sudoeste 0 -- -- 65
2018-09-08 03:00:00 21.1 4 Sur 15 Sudeste 0 -- -- 58
2018-09-08 02:00:00 20.9 5 Sudoeste 18 Sudeste 0 -- -- 60
2018-09-08 01:00:00 21 3 Sur 12 Sudeste 0 -- -- 58
2018-09-08 00:00:00 20.9 2 Noroeste 13 Sudeste 0 -- -- 59
2018-09-07 23:00:00 21.6 4 Sudeste 17 Este 0 -- -- 57
2018-09-07 22:00:00 22.1 6 Sudeste 16 Este 0 -- -- 56
2018-09-07 21:00:00 22.5 5 Nordeste 25 Este 0 -- -- 59
2018-09-07 20:00:00 24.2 7 Sudeste 22 Sudeste 0 -- -- 56
2018-09-07 19:00:00 26.2 10 Sudeste 24 Sudeste 0 -- -- 51
2018-09-07 18:00:00 26.9 6 Sur 23 Este 0 -- -- 47
2018-09-07 17:00:00 29.2 5 Sudoeste 15 Sudoeste 0 -- -- 38
2018-09-07 16:00:00 28.8 7 Sudoeste 17 Oeste 0 -- -- 39
2018-09-07 15:00:00 27.3 6 Sudoeste 22 Oeste 0 -- -- 41
2018-09-07 14:00:00 25.9 5 Oeste 21 Oeste 0 -- -- 47
2018-09-07 13:00:00 24.4 4 Noroeste 21 Sudoeste 0 -- -- 52
2018-09-07 12:00:00 22.5 5 Oeste 22 Noroeste 0 -- -- 57
2018-09-07 11:00:00 20.8 7 Noroeste 15 Sudoeste 0 -- -- 62
2018-09-07 10:00:00 18.3 5 Oeste 17 Noroeste 0 -- -- 73
2018-09-07 09:00:00 16.6 3 Sudeste 9 Sudeste 0 -- -- 79
2018-09-07 08:00:00 16.3 0 Calma 14 Noroeste 0 -- -- 78
2018-09-07 07:00:00 16.4 2 Norte 10 Sur 0 -- -- 78
2018-09-07 06:00:00 16.9 3 Nordeste 10 Oeste 0 -- -- 75
2018-09-07 05:00:00 17.4 4 Noroeste 11 Noroeste 0 -- -- 73
2018-09-07 04:00:00 18 4 Sudoeste 10 Noroeste 0 -- -- 71
2018-09-07 03:00:00 18.7 3 Norte 12 Sudoeste 0 -- -- 68
2018-09-07 02:00:00 19.6 2 Sudeste 17 Oeste 0 -- -- 65
2018-09-07 01:00:00 20.5 4 Noroeste 12 Oeste 0 -- -- 65
2018-09-07 00:00:00 20.9 0 Calma 5 Sudeste 0 -- -- 68
2018-09-06 23:00:00 22 0 Calma 4 Noroeste 0 -- -- 63
2018-09-06 22:00:00 23.2 0 Calma 3 Noroeste 0 -- -- 59
2018-09-06 21:00:00 24.1 2 Sudeste 9 Oeste 0 -- -- 55
2018-09-06 20:00:00 26 3 Noroeste 13 Noroeste 0 -- -- 50
2018-09-06 19:00:00 27.8 5 Oeste 16 Sudoeste 0 -- -- 45
2018-09-06 18:00:00 28.3 4 Sudoeste 16 Noroeste 0 -- -- 45
2018-09-06 17:00:00 28.1 5 Sur 18 Sudoeste 0 -- -- 46
2018-09-06 16:00:00 27.7 6 Sur 17 Sur 0 -- -- 49
2018-09-06 15:00:00 26.6 5 Sudoeste 21 Oeste 0 -- -- 52
2018-09-06 14:00:00 25.4 6 Sudoeste 18 Sudoeste 0 -- -- 56
2018-09-06 13:00:00 23.1 8 Oeste 15 Oeste 0 -- -- 65
2018-09-06 12:00:00 20.7 5 Noroeste 14 Oeste 0 -- -- 77
2018-09-06 11:00:00 19.3 5 Oeste 10 Sudoeste 0 -- -- 82
2018-09-06 10:00:00 18.6 4 Oeste 10 Oeste 0 -- -- 86
2018-09-06 09:00:00 18.5 3 Oeste 12 Noroeste 0 -- -- 87
2018-09-06 08:00:00 18.9 4 Oeste 9 Oeste 0 -- -- 85
2018-09-06 07:00:00 18.9 4 Noroeste 9 Noroeste 0 -- -- 85
2018-09-06 06:00:00 18.8 5 Nordeste 13 Nordeste 0 -- -- 87
2018-09-06 05:00:00 19 2 Sudoeste 13 Oeste 0 -- -- 87
2018-09-06 04:00:00 19.4 0 Calma 8 Sur 0 -- -- 86
2018-09-06 03:00:00 20.9 2 Sur 9 Noroeste 0 -- -- 79
2018-09-06 02:00:00 21.5 5 Oeste 19 Norte 0 -- -- 76
2018-09-06 01:00:00 21.3 8 Oeste 19 Noroeste 0 -- -- 81
2018-09-06 00:00:00 22 5 Norte 12 Norte 0 -- -- 78
2018-09-05 23:00:00 22.4 2 Oeste 13 Norte 0 -- -- 75
2018-09-05 22:00:00 22.3 7 Norte 28 Sudeste 0 -- -- 82
2018-09-05 21:00:00 21.8 5 Sur 30 Sur 0 -- -- 80
2018-09-05 20:00:00 22.6 4 Nordeste 19 Este 0 -- -- 78
2018-09-05 19:00:00 23.2 5 Noroeste 28 Sudeste 0 -- -- 78
2018-09-05 18:00:00 23.3 8 Sudoeste 26 Sur 0.2 -- -- 78
2018-09-05 17:00:00 24.1 10 Sur 27 Sudoeste 0 -- -- 74
2018-09-05 16:00:00 25.6 8 Sudeste 23 Sudeste 0 -- -- 65
2018-09-05 15:00:00 27.7 5 Sudoeste 19 Oeste 0 -- -- 54
2018-09-05 14:00:00 28.7 8 Oeste 23 Oeste 0 -- -- 52
2018-09-05 13:00:00 27.6 8 Oeste 23 Sudoeste 0 -- -- 55
2018-09-05 12:00:00 26.6 5 Noroeste 16 Sudoeste 0 -- -- 64
2018-09-05 11:00:00 24.5 5 Noroeste 11 Noroeste 0 -- -- 68
2018-09-05 10:00:00 20.7 0 Calma 6 Sur 0 -- -- 88
2018-09-05 09:00:00 19.3 2 Sudeste 13 Noroeste 0.2 -- -- 91
2018-09-05 08:00:00 19.6 3 Oeste 14 Sur 0.6 -- -- 90
2018-09-05 07:00:00 20.1 2 Nordeste 10 Sudeste 0.4 -- -- 87
2018-09-05 06:00:00 20.7 0 Calma 10 Noroeste 0 -- -- 81
2018-09-05 05:00:00 21.4 5 Oeste 19 Nordeste 0 -- -- 79
2018-09-05 04:00:00 21.7 2 Nordeste 12 Este 0 -- -- 76
2018-09-05 03:00:00 22 4 Oeste 17 Sur 0 -- -- 76
2018-09-05 02:00:00 22 4 Sudoeste 14 Este 0 -- -- 80
2018-09-05 01:00:00 22.2 5 Nordeste 22 Oeste 0 -- -- 80
2018-09-05 00:00:00 22.7 5 Sur 16 Sudeste 0 -- -- 79
2018-09-04 23:00:00 22.7 5 Oeste 19 Sudeste 0 -- -- 79
2018-09-04 22:00:00 23.2 9 Sudoeste 22 Sur 0 -- -- 77
2018-09-04 21:00:00 23.7 5 Oeste 22 Sudeste 0 -- -- 76
2018-09-04 20:00:00 24.7 12 Sudeste 32 Sudeste 0 -- -- 70
2018-09-04 19:00:00 27.1 7 Este 26 Este 0 -- -- 60
2018-09-04 18:00:00 28.8 7 Este 20 Sudeste 0 -- -- 52
2018-09-04 17:00:00 30 6 Sudoeste 30 Sur 0 -- -- 51
2018-09-04 16:00:00 29.5 8 Sudeste 31 Sur 0 -- -- 55
2018-09-04 15:00:00 30.5 6 Sudeste 22 Sur 0 -- -- 53
2018-09-04 14:00:00 29.6 10 Oeste 25 Oeste 0 -- -- 53
2018-09-04 13:00:00 29 5 Sudoeste 14 Sur 0 -- -- 43
2018-09-04 12:00:00 27 7 Oeste 16 Noroeste 0 -- -- 51
2018-09-04 11:00:00 24.5 3 Sudeste 6 Sudeste 0 -- -- 64
2018-09-04 10:00:00 21.3 3 Sur 6 Sur 0 -- -- 78
2018-09-04 09:00:00 19.5 2 Sur 5 Sudoeste 0 -- -- 87
2018-09-04 08:00:00 19.5 2 Noroeste 4 Nordeste 0 -- -- 89
2018-09-04 07:00:00 20.2 0 Calma 6 Sudeste 0 -- -- 85
2018-09-04 06:00:00 21.1 2 Norte 13 Este 0 -- -- 81
2018-09-04 05:00:00 22.1 4 Sudeste 20 Sudeste 0 -- -- 78
2018-09-04 04:00:00 21.1 3 Este 12 Sudeste 0 -- -- 81
2018-09-04 03:00:00 22.7 0 Calma 14 Oeste 0 -- -- 75
2018-09-04 02:00:00 23.1 4 Oeste 13 Sur 0 -- -- 74
2018-09-04 01:00:00 23.4 8 Oeste 27 Noroeste 0 -- -- 78
2018-09-04 00:00:00 23.2 5 Noroeste 30 Este 0.2 -- -- 78
2018-09-03 23:00:00 23.4 6 Norte 24 Sudeste 0 -- -- 82
2018-09-03 22:00:00 23.3 5 Sur 26 Este 0.8 -- -- 82
2018-09-03 21:00:00 24.6 5 Sudoeste 17 Noroeste 0 -- -- 75
2018-09-03 20:00:00 25.4 9 Sudeste 31 Oeste 0 -- -- 69
2018-09-03 19:00:00 27.5 9 Sudeste 30 Este 0 -- -- 60
2018-09-03 18:00:00 25.9 8 Sur 26 Sudeste 0 -- -- 66
2018-09-03 17:00:00 25.7 6 Norte 31 Sur 0 -- -- 69
2018-09-03 16:00:00 26.9 12 Oeste 35 Noroeste 0 -- -- 65
2018-09-03 15:00:00 30.9 7 Sur 28 Sudeste 0 -- -- 50
2018-09-03 14:00:00 29.4 5 Sur 17 Oeste 0 -- -- 57
2018-09-03 13:00:00 27 7 Oeste 23 Este 0 -- -- 65
2018-09-03 12:00:00 26.6 5 Sudeste 24 Sudeste 0 -- -- 66
2018-09-03 11:00:00 24.6 9 Sudeste 23 Sudeste 0 -- -- 75
2018-09-03 10:00:00 24 3 Oeste 13 Sudoeste 0 -- -- 78
2018-09-03 09:00:00 23.5 5 Sur 20 Sudeste 0 -- -- 77
2018-09-03 08:00:00 22.9 4 Sudeste 18 Este 0 -- -- 81
2018-09-03 07:00:00 22.8 6 Sudoeste 22 Este 0 -- -- 82
2018-09-03 06:00:00 23 5 Oeste 21 Sudeste 0 -- -- 82
2018-09-03 05:00:00 23.2 7 Sur 26 Este 0 -- -- 83
2018-09-03 04:00:00 23.1 7 Sudeste 24 Sudeste 0 -- -- 83
2018-09-03 03:00:00 23.1 6 Sudoeste 22 Este 0 -- -- 83
2018-09-03 02:00:00 23 5 Sur 19 Sur 0 -- -- 83
2018-09-03 01:00:00 23 7 Sudeste 31 Sudoeste 0 -- -- 82
2018-09-03 00:00:00 23.3 7 Sur 22 Sur 0 -- -- 77
2018-09-02 23:00:00 23.4 5 Norte 22 Sur 0 -- -- 77
2018-09-02 22:00:00 23.8 9 Sur 24 Sudeste 0 -- -- 80
2018-09-02 21:00:00 24.4 11 Sudeste 25 Sur 0 -- -- 78
2018-09-02 20:00:00 26.2 9 Sudeste 22 Sudeste 0 -- -- 70
2018-09-02 19:00:00 28.6 9 Sudoeste 22 Sudoeste 0 -- -- 62
2018-09-02 18:00:00 30.5 8 Sudoeste 25 Sudoeste 0 -- -- 55
2018-09-02 17:00:00 30.3 5 Sudeste 18 Sudeste 0 -- -- 52
2018-09-02 16:00:00 31.5 6 Sur 17 Sudoeste 0 -- -- 46
2018-09-02 15:00:00 30.1 5 Sudeste 17 Nordeste 0 -- -- 49
2018-09-02 14:00:00 29.1 5 Noroeste 14 Sur 0 -- -- 52
2018-09-02 13:00:00 28.1 5 Sur 18 Oeste 0 -- -- 54
2018-09-02 12:00:00 25.8 5 Oeste 19 Sudeste 0 -- -- 66
2018-09-02 11:00:00 24.6 5 Noroeste 16 Oeste 0 -- -- 71
2018-09-02 10:00:00 22.1 3 Sur 7 Este 0 -- -- 82
2018-09-02 09:00:00 20.8 0 Calma 9 Sudeste 0 -- -- 86
2018-09-02 08:00:00 21.1 3 Sur 12 Sudeste 0 -- -- 84
2018-09-02 07:00:00 21.7 5 Sur 17 Sudeste 0 -- -- 83
2018-09-02 06:00:00 22.1 6 Sur 19 Sudeste 0 -- -- 82
2018-09-02 05:00:00 22.3 9 Sudeste 20 Sudeste 0 -- -- 81
2018-09-02 04:00:00 22.5 5 Oeste 17 Sudoeste 0 -- -- 80
2018-09-02 03:00:00 22.5 7 Sur 19 Sudoeste 0 -- -- 78
2018-09-02 02:00:00 22.6 7 Sur 27 Sudeste 0 -- -- 77
2018-09-02 01:00:00 22.6 6 Sudeste 21 Nordeste 0 -- -- 75
2018-09-02 00:00:00 22.6 5 Oeste 16 Sur 0 -- -- 72
2018-09-01 23:00:00 22.6 5 Sudeste 23 Este 0 -- -- 71
2018-09-01 22:00:00 23.2 7 Sur 22 Este 0 -- -- 66
2018-09-01 21:00:00 24 7 Sudeste 26 Este 0 -- -- 64
2018-09-01 20:00:00 25.7 8 Sur 22 Sur 0 -- -- 58
2018-09-01 19:00:00 28.6 8 Sur 24 Sur 0 -- -- 51
2018-09-01 18:00:00 29.3 9 Sur 25 Este 0 -- -- 49
2018-09-01 17:00:00 31.3 6 Oeste 17 Sudoeste 0 -- -- 36
2018-09-01 16:00:00 30.7 5 Sudoeste 20 Oeste 0 -- -- 39
2018-09-01 15:00:00 28.9 6 Oeste 15 Sur 0 -- -- 43
2018-09-01 14:00:00 27.7 4 Sudeste 17 Noroeste 0 -- -- 46
2018-09-01 13:00:00 26.1 4 Sudoeste 16 Oeste 0 -- -- 51
2018-09-01 12:00:00 24.1 4 Sur 18 Noroeste 0 -- -- 57
2018-09-01 11:00:00 22.4 4 Noroeste 15 Oeste 0 -- -- 63
2018-09-01 10:00:00 19.9 6 Oeste 14 Sur 0 -- -- 71
2018-09-01 09:00:00 17.6 3 Sur 7 Este 0 -- -- 80
2018-09-01 08:00:00 17.1 0 Calma 11 Norte 0 -- -- 83
2018-09-01 07:00:00 17.3 0 Calma 6 Este 0 -- -- 81
2018-09-01 06:00:00 18.2 2 Norte 7 Sudeste 0 -- -- 77
2018-09-01 05:00:00 19.1 3 Sudeste 7 Nordeste 0 -- -- 74
2018-09-01 04:00:00 20.3 2 Sudoeste 12 Noroeste 0 -- -- 71
2018-09-01 03:00:00 21.7 0 Calma 12 Sudeste 0 -- -- 81
2018-09-01 02:00:00 22 4 Sudeste 15 Sudeste 0 -- -- 79
2018-09-01 01:00:00 22.1 4 Oeste 20 Sudeste 0 -- -- 78
2018-09-01 00:00:00 22.4 6 Sudeste 23 Sudeste 0 -- -- 73
2018-08-31 23:00:00 22.4 8 Sudeste 25 Este 0 -- -- 75
2018-08-31 22:00:00 22.7 10 Sudeste 22 Este 0 -- -- 76
2018-08-31 21:00:00 23.7 8 Sudeste 17 Sudeste 0 -- -- 73
2018-08-31 20:00:00 25.6 9 Sudeste 21 Sudeste 0 -- -- 66
2018-08-31 19:00:00 27.6 9 Sudeste 21 Sudeste 0 -- -- 59
2018-08-31 18:00:00 29.8 9 Oeste 28 Noroeste 0 -- -- 54
2018-08-31 17:00:00 31 5 Sur 16 Oeste 0 -- -- 40
2018-08-31 16:00:00 29.7 8 Sudoeste 18 Noroeste 0 -- -- 43
2018-08-31 15:00:00 28.9 5 Sudoeste 15 Sur 0 -- -- 42
2018-08-31 14:00:00 27 5 Noroeste 15 Noroeste 0 -- -- 47
2018-08-31 13:00:00 23.9 5 Noroeste 10 Noroeste 0 -- -- 55
2018-08-31 12:00:00 22.1 0 Calma 8 Este 0 -- -- 60
2018-08-31 11:00:00 21.4 4 Noroeste 13 Oeste 0 -- -- 65
2018-08-31 10:00:00 19.4 4 Noroeste 12 Oeste 0 -- -- 72
2018-08-31 09:00:00 17.8 4 Noroeste 12 Oeste 0 -- -- 79
2018-08-31 08:00:00 17.3 3 Noroeste 10 Norte 0 -- -- 86
2018-08-31 07:00:00 18.3 3 Norte 14 Oeste 2.2 -- -- 86
2018-08-31 06:00:00 20.9 4 Noroeste 12 Noroeste 0 -- -- 64
2018-08-31 05:00:00 21.5 3 Oeste 12 Oeste 0 -- -- 69
2018-08-31 04:00:00 22.9 3 Sur 17 Sudeste 0 -- -- 84
2018-08-31 03:00:00 22.8 7 Sudeste 15 Este 0 -- -- 82
2018-08-31 02:00:00 22.8 5 Sudeste 19 Sudeste 0 -- -- 81
2018-08-31 01:00:00 23.2 8 Sudeste 18 Este 0 -- -- 78
2018-08-31 00:00:00 23.3 5 Sur 18 Sudeste 0 -- -- 80
2018-08-30 23:00:00 23.4 6 Sudeste 17 Sudeste 0 -- -- 81
2018-08-30 22:00:00 23.7 5 Sudeste 18 Sudeste 0 -- -- 80
2018-08-30 21:00:00 24.5 5 Sudoeste 21 Sudeste 0 -- -- 77
2018-08-30 20:00:00 25.8 10 Sudeste 24 Este 0 -- -- 71
2018-08-30 19:00:00 26.2 9 Sudeste 21 Sudeste 0 -- -- 69
2018-08-30 18:00:00 28.8 5 Sudeste 21 Sudeste 0 -- -- 59
2018-08-30 17:00:00 31.3 7 Sudoeste 21 Sur 0 -- -- 51
2018-08-30 16:00:00 31 6 Noroeste 20 Noroeste 0 -- -- 41
2018-08-30 15:00:00 29.9 5 Oeste 14 Noroeste 0 -- -- 46
2018-08-30 14:00:00 28.4 4 Oeste 15 Oeste 0 -- -- 49
2018-08-30 13:00:00 26.4 5 Oeste 12 Noroeste 0 -- -- 53
2018-08-30 12:00:00 24.7 5 Nordeste 10 Sudeste 0 -- -- 58
2018-08-30 11:00:00 22.4 4 Sur 9 Sur 0 -- -- 64
2018-08-30 10:00:00 20.3 2 Oeste 12 Oeste 0 -- -- 72
2018-08-30 09:00:00 18.9 3 Noroeste 10 Norte 0 -- -- 77
2018-08-30 08:00:00 18.5 3 Nordeste 9 Este 0 -- -- 79
2018-08-30 07:00:00 18.7 3 Nordeste 10 Sur 0 -- -- 78
2018-08-30 06:00:00 19.4 3 Sudeste 10 Oeste 0 -- -- 76
2018-08-30 05:00:00 20.2 3 Sudoeste 11 Oeste 0 -- -- 75
2018-08-30 04:00:00 21.3 8 Noroeste 19 Noroeste 0 -- -- 74
2018-08-30 03:00:00 22.5 4 Sudeste 13 Sudeste 0 -- -- 84
2018-08-30 02:00:00 22.8 5 Sur 18 Sur 0 -- -- 83
2018-08-30 01:00:00 23.2 7 Sur 25 Sudoeste 0 -- -- 82
2018-08-30 00:00:00 23.6 8 Sur 23 Sudeste 0 -- -- 80
2018-08-29 23:00:00 23.8 4 Norte 18 Este 0 -- -- 79
2018-08-29 22:00:00 24.1 8 Sudeste 28 Este 0 -- -- 74
2018-08-29 21:00:00 25 6 Sudeste 24 Sur 0 -- -- 64
2018-08-29 20:00:00 26.8 8 Sur 22 Sudeste 0 -- -- 62
2018-08-29 19:00:00 28.8 7 Sudeste 23 Sur 0 -- -- 58
2018-08-29 18:00:00 31.1 8 Oeste 23 Oeste 0 -- -- 50
2018-08-29 17:00:00 32.5 5 Noroeste 14 Sudoeste 0 -- -- 39
2018-08-29 16:00:00 31.5 6 Sudoeste 16 Sudoeste 0 -- -- 43
2018-08-29 15:00:00 30.1 5 Noroeste 13 Sur 0 -- -- 44
2018-08-29 14:00:00 29 4 Sudeste 15 Norte 0 -- -- 47
2018-08-29 13:00:00 28.6 4 Sur 12 Oeste 0 -- -- 49
2018-08-29 12:00:00 27 5 Oeste 11 Sudoeste 0 -- -- 59
2018-08-29 11:00:00 25.6 5 Sur 8 Oeste 0 -- -- 62
2018-08-29 10:00:00 21.9 0 Calma 4 Sudeste 0 -- -- 76
2018-08-29 09:00:00 19.2 0 Calma 4 Este 0 -- -- 84
2018-08-29 08:00:00 18.8 0 Calma 6 Oeste 0 -- -- 82
2018-08-29 07:00:00 20.6 4 Sur 11 Noroeste 0 -- -- 71
2018-08-29 06:00:00 20.4 4 Nordeste 14 Norte 0 -- -- 75
2018-08-29 05:00:00 19.8 2 Nordeste 6 Norte 0 -- -- 80
2018-08-29 04:00:00 20.6 4 Sur 13 Este 0 -- -- 80
2018-08-29 03:00:00 20.4 3 Nordeste 10 Sudeste 0 -- -- 85
2018-08-29 02:00:00 21.8 8 Nordeste 18 Nordeste 0.2 -- -- 79
2018-08-29 01:00:00 21.8 8 Sudoeste 21 Noroeste 0 -- -- 77
2018-08-29 00:00:00 22.8 7 Este 32 Sudeste 0.2 -- -- 68
2018-08-28 23:00:00 21.7 4 Noroeste 27 Oeste 0 -- -- 82
2018-08-28 22:00:00 21.8 7 Oeste 28 Oeste 0.6 -- -- 77
2018-08-28 21:00:00 22.6 14 Este 27 Este 7 -- -- 83
2018-08-28 20:00:00 26.2 3 Sudoeste 31 Sudeste 0 -- -- 56
2018-08-28 19:00:00 27.1 7 Oeste 23 Sudeste 0 -- -- 52
2018-08-28 18:00:00 24.8 8 Sudeste 25 Sudeste 0 -- -- 73
2018-08-28 17:00:00 24.4 7 Sudeste 40 Oeste 0.8 -- -- 80
2018-08-28 16:00:00 28.1 14 Noroeste 29 Noroeste 0 -- -- 64
2018-08-28 15:00:00 31.2 8 Sudoeste 27 Sudeste 0 -- -- 55
2018-08-28 14:00:00 31.9 8 Oeste 26 Este 0 -- -- 53
2018-08-28 13:00:00 30.4 6 Este 25 Este 0 -- -- 53
2018-08-28 12:00:00 29.1 9 Sudeste 31 Sudeste 0 -- -- 55
2018-08-28 11:00:00 26.9 10 Sudeste 36 Sudeste 0 -- -- 61
2018-08-28 10:00:00 25.1 9 Sudeste 29 Sudeste 0 -- -- 69
2018-08-28 09:00:00 23.6 7 Sudeste 23 Nordeste 0 -- -- 77
2018-08-28 08:00:00 22.8 8 Norte 31 Este 0 -- -- 79
2018-08-28 07:00:00 23 6 Noroeste 27 Sudeste 0 -- -- 75
2018-08-28 06:00:00 22.6 10 Sudeste 21 Este 0 -- -- 80
2018-08-28 05:00:00 22.8 5 Sur 20 Sudeste 0 -- -- 78
2018-08-28 04:00:00 23.1 10 Sudeste 28 Sur 0 -- -- 79
2018-08-28 03:00:00 23 10 Sudeste 30 Sudeste 0 -- -- 81
2018-08-28 02:00:00 22.9 8 Sudeste 30 Este 0 -- -- 81
2018-08-28 01:00:00 23.2 13 Sudeste 31 Sudeste 0 -- -- 77
2018-08-28 00:00:00 24.2 12 Sudeste 27 Sur 0 -- -- 70
2018-08-27 23:00:00 24.3 12 Sudeste 27 Este 0 -- -- 69
2018-08-27 22:00:00 24.9 10 Sudeste 26 Sudeste 0 -- -- 66
2018-08-27 21:00:00 25.5 12 Sudeste 25 Sur 0 -- -- 68
2018-08-27 20:00:00 27.6 8 Sudoeste 29 Sudoeste 0 -- -- 60
2018-08-27 19:00:00 30.6 8 Sudeste 28 Noroeste 0 -- -- 57
2018-08-27 18:00:00 31.6 7 Sur 23 Sur 0 -- -- 53
2018-08-27 17:00:00 32.3 8 Sur 21 Sudoeste 0 -- -- 49
2018-08-27 16:00:00 31.9 8 Sur 18 Sudeste 0 -- -- 50
2018-08-27 15:00:00 32.6 9 Noroeste 18 Noroeste 0 -- -- 37
2018-08-27 14:00:00 31.1 6 Oeste 15 Sudoeste 0 -- -- 40
2018-08-27 13:00:00 29.7 5 Noroeste 22 Noroeste 0 -- -- 45
2018-08-27 12:00:00 28.5 7 Sudeste 14 Sudeste 0 -- -- 47
2018-08-27 11:00:00 25.8 4 Noroeste 10 Oeste 0 -- -- 58
2018-08-27 10:00:00 21.6 0 Calma 5 Oeste 0 -- -- 79
2018-08-27 09:00:00 17.8 0 Calma 3 Oeste 0 -- -- 88
2018-08-27 08:00:00 17 0 Calma 3 Noroeste 0 -- -- 86
2018-08-27 07:00:00 17.4 0 Calma 4 Sudeste 0 -- -- 85
2018-08-27 06:00:00 17.9 0 Calma 4 Sudeste 0 -- -- 84
2018-08-27 05:00:00 18.5 0 Calma 4 Sudeste 0 -- -- 82
2018-08-27 04:00:00 19.5 0 Calma 5 Nordeste 0 -- -- 78
2018-08-27 03:00:00 19.8 0 Calma 5 Noroeste 0 -- -- 77
2018-08-27 02:00:00 20.5 0 Calma 6 Sur 0 -- -- 74
2018-08-27 01:00:00 21.6 3 Norte 16 Sur 0 -- -- 70
2018-08-27 00:00:00 22.4 8 Sudeste 18 Sudeste 0 -- -- 67
2018-08-26 23:00:00 22.5 4 Sur 15 Sudeste 0 -- -- 67
2018-08-26 22:00:00 23.4 5 Sur 13 Este 0 -- -- 63
2018-08-26 21:00:00 25.3 4 Sur 13 Sudoeste 0 -- -- 55
2018-08-26 20:00:00 27.4 6 Oeste 15 Sudoeste 0 -- -- 46
2018-08-26 19:00:00 29.8 6 Sur 21 Sur 0 -- -- 41
2018-08-26 18:00:00 30.6 8 Sur 18 Sudoeste 0 -- -- 36
2018-08-26 17:00:00 30.4 6 Oeste 18 Oeste 0 -- -- 35
2018-08-26 16:00:00 29 5 Sudoeste 17 Oeste 0 -- -- 38
2018-08-26 15:00:00 28.2 10 Noroeste 19 Noroeste 0 -- -- 40
2018-08-26 14:00:00 26.9 4 Oeste 18 Oeste 0 -- -- 41
2018-08-26 13:00:00 24.7 5 Noroeste 16 Oeste 0 -- -- 43
2018-08-26 12:00:00 23.2 5 Sur 13 Oeste 0 -- -- 46
2018-08-26 11:00:00 20.8 6 Sudoeste 15 Sur 0 -- -- 52
2018-08-26 10:00:00 18.2 6 Oeste 11 Oeste 0 -- -- 60
2018-08-26 09:00:00 16.6 0 Calma 9 Nordeste 0 -- -- 63
2018-08-26 08:00:00 15.7 4 Sudeste 8 Sudeste 0 -- -- 65
2018-08-26 07:00:00 15.5 3 Norte 10 Sur 0 -- -- 65
2018-08-26 06:00:00 16 3 Nordeste 10 Norte 0 -- -- 63
2018-08-26 05:00:00 16.6 4 Nordeste 12 Sudeste 0 -- -- 60
2018-08-26 04:00:00 17.4 3 Noroeste 11 Noroeste 0 -- -- 56
2018-08-26 03:00:00 18 3 Noroeste 12 Nordeste 0 -- -- 53
2018-08-26 02:00:00 19.4 3 Sur 11 Sur 0 -- -- 49
2018-08-26 01:00:00 20.3 4 Oeste 21 Sur 0 -- -- 48
2018-08-26 00:00:00 21 2 Norte 9 Sur 0 -- -- 52
2018-08-25 23:00:00 21.8 2 Norte 17 Sudeste 0 -- -- 73
2018-08-25 22:00:00 22.7 7 Sudeste 15 Sudeste 0 -- -- 70
2018-08-25 21:00:00 24.2 8 Sur 21 Sudeste 0 -- -- 64
2018-08-25 20:00:00 28.2 3 Noroeste 11 Sur 0 -- -- 27
2018-08-25 19:00:00 29.6 4 Noroeste 21 Sur 0 -- -- 27
2018-08-25 18:00:00 27.9 5 Sur 19 Oeste 0 -- -- 28
2018-08-25 17:00:00 28.6 6 Sur 26 Sudoeste 0 -- -- 27
2018-08-25 16:00:00 28.7 8 Sudoeste 24 Sudoeste 0 -- -- 27
2018-08-25 15:00:00 27.4 9 Oeste 34 Oeste 0 -- -- 34
2018-08-25 14:00:00 26 8 Sur 28 Oeste 0 -- -- 37
2018-08-25 13:00:00 24 7 Oeste 22 Oeste 0 -- -- 43
2018-08-25 12:00:00 22 10 Oeste 24 Noroeste 0 -- -- 50
2018-08-25 11:00:00 20.3 9 Sudoeste 25 Sur 0 -- -- 54
2018-08-25 10:00:00 18.4 6 Sur 21 Nordeste 0 -- -- 61
2018-08-25 09:00:00 16.6 6 Sudoeste 21 Sudoeste 0 -- -- 68
2018-08-25 08:00:00 16.3 4 Nordeste 15 Norte 0 -- -- 68
2018-08-25 07:00:00 16.4 3 Norte 13 Sur 0 -- -- 67
2018-08-25 06:00:00 17.1 4 Noroeste 13 Oeste 0 -- -- 65
2018-08-25 05:00:00 17.9 4 Sudoeste 17 Noroeste 0 -- -- 62
2018-08-25 04:00:00 18.7 4 Sudoeste 15 Sudoeste 0 -- -- 60
2018-08-25 03:00:00 19.4 3 Este 17 Sur 0 -- -- 57
2018-08-25 02:00:00 20 5 Sur 15 Sur 0 -- -- 55
2018-08-25 01:00:00 21 5 Oeste 18 Nordeste 0 -- -- 51
2018-08-25 00:00:00 22.5 5 Noroeste 17 Oeste 0 -- -- 48
2018-08-24 23:00:00 23.8 6 Oeste 18 Oeste 0 -- -- 46
2018-08-24 22:00:00 25.2 4 Sur 11 Sudeste 0 -- -- 43
2018-08-24 21:00:00 26.9 5 Sudoeste 19 Sudoeste 0 -- -- 42
2018-08-24 20:00:00 29 6 Sur 33 Sudoeste 0 -- -- 38
2018-08-24 19:00:00 30.1 10 Sudoeste 36 Oeste 0 -- -- 36
2018-08-24 18:00:00 31.3 9 Sur 42 Sudoeste 0 -- -- 34
2018-08-24 17:00:00 31.1 13 Sur 32 Sudoeste 0 -- -- 33
2018-08-24 16:00:00 30.7 10 Oeste 27 Sudoeste 0 -- -- 39
2018-08-24 15:00:00 29.7 8 Oeste 24 Oeste 0 -- -- 40
2018-08-24 14:00:00 28.2 8 Sudoeste 28 Sur 0 -- -- 40
2018-08-24 13:00:00 26.6 8 Oeste 24 Oeste 0 -- -- 45
2018-08-24 12:00:00 24.9 6 Oeste 27 Sudoeste 0 -- -- 52
2018-08-24 11:00:00 23.2 7 Sur 19 Noroeste 0 -- -- 57
2018-08-24 10:00:00 21.1 5 Sudeste 18 Sur 0 -- -- 66
2018-08-24 09:00:00 19.1 5 Sudoeste 13 Sur 0 -- -- 73
2018-08-24 08:00:00 18.6 3 Sudeste 8 Este 0 -- -- 75
2018-08-24 07:00:00 19 3 Sudoeste 9 Sur 0 -- -- 74
2018-08-24 06:00:00 19.6 2 Este 13 Sudoeste 0 -- -- 72
2018-08-24 05:00:00 20.4 2 Noroeste 14 Oeste 0 -- -- 70
2018-08-24 04:00:00 21.4 6 Noroeste 19 Sudoeste 0 -- -- 68
2018-08-24 03:00:00 22.6 4 Sudoeste 14 Noroeste 0 -- -- 64
2018-08-24 02:00:00 22.2 2 Sudeste 4 Sudeste 0 -- -- 74
2018-08-24 01:00:00 22.5 2 Este 6 Este 0 -- -- 71
2018-08-24 00:00:00 23.2 0 Calma 4 Sudoeste 0 -- -- 68